sensor_id;sensor_type;location;lat;lon;timestamp;temperature;humidity
47791;DHT22;33547;49.044;1.156;2023-07-13T00:01:16;15.50;99.90
47791;DHT22;33547;49.044;1.156;2023-07-13T00:03:42;15.50;99.90
47791;DHT22;33547;49.044;1.156;2023-07-13T00:06:08;15.50;99.90
47791;DHT22;33547;49.044;1.156;2023-07-13T00:08:35;15.50;99.90
47791;DHT22;33547;49.044;1.156;2023-07-13T00:11:02;15.60;99.90
47791;DHT22;33547;49.044;1.156;2023-07-13T00:13:28;15.40;99.90
47791;DHT22;33547;49.044;1.156;2023-07-13T00:15:57;15.30;99.90
47791;DHT22;33547;49.044;1.156;2023-07-13T00:18:23;15.30;99.90
47791;DHT22;33547;49.044;1.156;2023-07-13T00:20:48;15.20;99.90
47791;DHT22;33547;49.044;1.156;2023-07-13T00:23:14;15.30;99.90
47791;DHT22;33547;49.044;1.156;2023-07-13T00:25:39;15.50;99.90
47791;DHT22;33547;49.044;1.156;2023-07-13T00:28:05;15.70;99.90
47791;DHT22;33547;49.044;1.156;2023-07-13T00:30:31;15.60;99.90
47791;DHT22;33547;49.044;1.156;2023-07-13T00:32:57;15.60;99.90
47791;DHT22;33547;49.044;1.156;2023-07-13T00:35:22;15.60;99.90
47791;DHT22;33547;49.044;1.156;2023-07-13T00:37:48;15.70;99.90
47791;DHT22;33547;49.044;1.156;2023-07-13T00:40:15;15.80;99.90
47791;DHT22;33547;49.044;1.156;2023-07-13T00:42:41;15.90;99.90
47791;DHT22;33547;49.044;1.156;2023-07-13T00:47:32;16.10;99.90
47791;DHT22;33547;49.044;1.156;2023-07-13T00:49:58;16.10;99.90
47791;DHT22;33547;49.044;1.156;2023-07-13T00:52:24;16.20;99.90
47791;DHT22;33547;49.044;1.156;2023-07-13T00:54:50;16.10;99.90
47791;DHT22;33547;49.044;1.156;2023-07-13T00:57:18;16.10;99.90
47791;DHT22;33547;49.044;1.156;2023-07-13T00:59:49;15.90;99.90
47791;DHT22;33547;49.044;1.156;2023-07-13T01:02:15;15.80;99.90
47791;DHT22;33547;49.044;1.156;2023-07-13T01:04:41;15.80;99.90
47791;DHT22;33547;49.044;1.156;2023-07-13T01:07:09;15.60;99.90
47791;DHT22;33547;49.044;1.156;2023-07-13T01:09:36;15.60;99.90
47791;DHT22;33547;49.044;1.156;2023-07-13T01:12:01;15.60;99.90
47791;DHT22;33547;49.044;1.156;2023-07-13T01:14:27;15.50;99.90
47791;DHT22;33547;49.044;1.156;2023-07-13T01:16:53;15.60;99.90
47791;DHT22;33547;49.044;1.156;2023-07-13T01:21:55;15.70;99.90
47791;DHT22;33547;49.044;1.156;2023-07-13T01:24:20;15.70;99.90
47791;DHT22;33547;49.044;1.156;2023-07-13T01:26:46;15.80;99.90
47791;DHT22;33547;49.044;1.156;2023-07-13T01:29:11;15.80;99.90
47791;DHT22;33547;49.044;1.156;2023-07-13T01:31:37;16.00;99.90
47791;DHT22;33547;49.044;1.156;2023-07-13T01:34:03;16.10;99.90
47791;DHT22;33547;49.044;1.156;2023-07-13T01:36:28;16.00;99.90
47791;DHT22;33547;49.044;1.156;2023-07-13T01:38:54;16.00;99.90
47791;DHT22;33547;49.044;1.156;2023-07-13T01:41:20;16.10;99.90
47791;DHT22;33547;49.044;1.156;2023-07-13T01:43:46;16.30;99.90
47791;DHT22;33547;49.044;1.156;2023-07-13T01:46:12;16.40;99.90
47791;DHT22;33547;49.044;1.156;2023-07-13T01:48:37;16.40;99.90
47791;DHT22;33547;49.044;1.156;2023-07-13T01:51:03;16.40;99.90
47791;DHT22;33547;49.044;1.156;2023-07-13T01:53:28;16.30;99.90
47791;DHT22;33547;49.044;1.156;2023-07-13T01:55:54;16.40;99.90
47791;DHT22;33547;49.044;1.156;2023-07-13T01:58:20;16.40;99.90
47791;DHT22;33547;49.044;1.156;2023-07-13T02:00:48;16.40;99.90
47791;DHT22;33547;49.044;1.156;2023-07-13T02:03:15;16.40;99.90
47791;DHT22;33547;49.044;1.156;2023-07-13T02:05:43;16.40;99.90
47791;DHT22;33547;49.044;1.156;2023-07-13T02:08:09;16.40;99.90
47791;DHT22;33547;49.044;1.156;2023-07-13T02:10:36;16.50;99.90
47791;DHT22;33547;49.044;1.156;2023-07-13T02:13:02;16.50;99.90
47791;DHT22;33547;49.044;1.156;2023-07-13T02:15:27;16.40;99.90
47791;DHT22;33547;49.044;1.156;2023-07-13T02:17:53;16.40;99.90
47791;DHT22;33547;49.044;1.156;2023-07-13T02:20:18;16.60;99.90
47791;DHT22;33547;49.044;1.156;2023-07-13T02:22:44;16.50;99.90
47791;DHT22;33547;49.044;1.156;2023-07-13T02:25:10;16.50;99.90
47791;DHT22;33547;49.044;1.156;2023-07-13T02:27:35;16.50;99.90
47791;DHT22;33547;49.044;1.156;2023-07-13T02:30:01;16.50;99.90
47791;DHT22;33547;49.044;1.156;2023-07-13T02:32:26;16.40;99.90
47791;DHT22;33547;49.044;1.156;2023-07-13T02:34:52;16.50;99.90
47791;DHT22;33547;49.044;1.156;2023-07-13T02:37:18;16.50;99.90
47791;DHT22;33547;49.044;1.156;2023-07-13T02:39:44;16.50;99.90
47791;DHT22;33547;49.044;1.156;2023-07-13T02:42:09;16.50;99.90
47791;DHT22;33547;49.044;1.156;2023-07-13T02:44:35;16.50;99.90
47791;DHT22;33547;49.044;1.156;2023-07-13T02:47:01;16.60;99.90
47791;DHT22;33547;49.044;1.156;2023-07-13T02:49:27;16.50;99.90
47791;DHT22;33547;49.044;1.156;2023-07-13T02:51:52;16.50;99.90
47791;DHT22;33547;49.044;1.156;2023-07-13T02:54:18;16.50;99.90
47791;DHT22;33547;49.044;1.156;2023-07-13T02:56:43;16.60;99.90
47791;DHT22;33547;49.044;1.156;2023-07-13T02:59:09;16.60;99.90
47791;DHT22;33547;49.044;1.156;2023-07-13T03:01:36;16.70;99.90
47791;DHT22;33547;49.044;1.156;2023-07-13T03:04:02;16.60;99.90
47791;DHT22;33547;49.044;1.156;2023-07-13T03:06:27;16.70;99.90
47791;DHT22;33547;49.044;1.156;2023-07-13T03:08:56;16.70;99.90
47791;DHT22;33547;49.044;1.156;2023-07-13T03:11:21;16.70;99.90
47791;DHT22;33547;49.044;1.156;2023-07-13T03:13:47;16.70;99.90
47791;DHT22;33547;49.044;1.156;2023-07-13T03:16:15;16.60;99.90
47791;DHT22;33547;49.044;1.156;2023-07-13T03:18:42;16.70;99.90
47791;DHT22;33547;49.044;1.156;2023-07-13T03:21:07;16.70;99.90
47791;DHT22;33547;49.044;1.156;2023-07-13T03:23:33;16.60;99.90
47791;DHT22;33547;49.044;1.156;2023-07-13T03:26:11;16.60;99.90
47791;DHT22;33547;49.044;1.156;2023-07-13T03:28:38;16.70;99.90
47791;DHT22;33547;49.044;1.156;2023-07-13T03:31:07;16.70;99.90
47791;DHT22;33547;49.044;1.156;2023-07-13T03:33:34;16.70;99.90
47791;DHT22;33547;49.044;1.156;2023-07-13T03:36:00;16.70;99.90
47791;DHT22;33547;49.044;1.156;2023-07-13T03:38:26;16.70;99.90
47791;DHT22;33547;49.044;1.156;2023-07-13T03:40:52;16.70;99.90
47791;DHT22;33547;49.044;1.156;2023-07-13T03:43:18;16.70;99.90
47791;DHT22;33547;49.044;1.156;2023-07-13T03:45:46;16.70;99.90
47791;DHT22;33547;49.044;1.156;2023-07-13T03:48:11;16.70;99.90
47791;DHT22;33547;49.044;1.156;2023-07-13T03:50:37;16.70;99.90
47791;DHT22;33547;49.044;1.156;2023-07-13T03:53:04;16.70;99.90
47791;DHT22;33547;49.044;1.156;2023-07-13T03:55:29;16.60;99.90
47791;DHT22;33547;49.044;1.156;2023-07-13T03:58:00;16.60;99.90
47791;DHT22;33547;49.044;1.156;2023-07-13T04:00:26;16.40;99.90
47791;DHT22;33547;49.044;1.156;2023-07-13T04:02:51;16.50;99.90
47791;DHT22;33547;49.044;1.156;2023-07-13T04:05:17;16.50;99.90
47791;DHT22;33547;49.044;1.156;2023-07-13T04:07:43;16.60;99.90
47791;DHT22;33547;49.044;1.156;2023-07-13T04:10:09;16.50;99.90
47791;DHT22;33547;49.044;1.156;2023-07-13T04:12:35;16.50;99.90
47791;DHT22;33547;49.044;1.156;2023-07-13T04:15:01;16.40;99.90
47791;DHT22;33547;49.044;1.156;2023-07-13T04:17:27;16.30;99.90
47791;DHT22;33547;49.044;1.156;2023-07-13T04:19:52;16.30;99.90
47791;DHT22;33547;49.044;1.156;2023-07-13T04:22:18;16.30;99.90
47791;DHT22;33547;49.044;1.156;2023-07-13T04:24:44;16.30;99.90
47791;DHT22;33547;49.044;1.156;2023-07-13T04:27:09;16.20;99.90
47791;DHT22;33547;49.044;1.156;2023-07-13T04:29:35;16.20;99.90
47791;DHT22;33547;49.044;1.156;2023-07-13T04:32:01;16.10;99.90
47791;DHT22;33547;49.044;1.156;2023-07-13T04:34:26;16.10;99.90
47791;DHT22;33547;49.044;1.156;2023-07-13T04:36:52;16.10;99.90
47791;DHT22;33547;49.044;1.156;2023-07-13T04:39:17;16.10;99.90
47791;DHT22;33547;49.044;1.156;2023-07-13T04:41:43;15.90;99.90
47791;DHT22;33547;49.044;1.156;2023-07-13T04:44:09;16.00;99.90
47791;DHT22;33547;49.044;1.156;2023-07-13T04:46:34;15.80;99.90
47791;DHT22;33547;49.044;1.156;2023-07-13T04:49:00;15.80;99.90
47791;DHT22;33547;49.044;1.156;2023-07-13T04:51:26;16.00;99.90
47791;DHT22;33547;49.044;1.156;2023-07-13T04:53:52;16.10;99.90
47791;DHT22;33547;49.044;1.156;2023-07-13T04:56:17;16.10;99.90
47791;DHT22;33547;49.044;1.156;2023-07-13T04:58:45;16.20;99.90
47791;DHT22;33547;49.044;1.156;2023-07-13T05:01:10;16.30;99.90
47791;DHT22;33547;49.044;1.156;2023-07-13T05:03:36;16.50;99.90
47791;DHT22;33547;49.044;1.156;2023-07-13T05:06:05;16.60;99.90
47791;DHT22;33547;49.044;1.156;2023-07-13T05:08:30;16.80;99.90
47791;DHT22;33547;49.044;1.156;2023-07-13T05:11:00;16.70;99.90
47791;DHT22;33547;49.044;1.156;2023-07-13T05:13:26;16.90;99.90
47791;DHT22;33547;49.044;1.156;2023-07-13T05:16:00;16.90;99.90
47791;DHT22;33547;49.044;1.156;2023-07-13T05:18:26;16.80;99.90
47791;DHT22;33547;49.044;1.156;2023-07-13T05:20:59;16.90;99.90
47791;DHT22;33547;49.044;1.156;2023-07-13T05:23:25;17.00;99.90
47791;DHT22;33547;49.044;1.156;2023-07-13T05:25:51;16.90;99.90
47791;DHT22;33547;49.044;1.156;2023-07-13T05:28:16;16.90;99.90
47791;DHT22;33547;49.044;1.156;2023-07-13T05:30:46;16.90;99.90
47791;DHT22;33547;49.044;1.156;2023-07-13T05:33:12;16.90;99.90
47791;DHT22;33547;49.044;1.156;2023-07-13T05:35:38;16.90;99.90
47791;DHT22;33547;49.044;1.156;2023-07-13T05:38:03;16.90;99.90
47791;DHT22;33547;49.044;1.156;2023-07-13T05:40:29;16.90;99.90
47791;DHT22;33547;49.044;1.156;2023-07-13T05:42:55;17.00;99.90
47791;DHT22;33547;49.044;1.156;2023-07-13T05:45:20;17.30;99.90
47791;DHT22;33547;49.044;1.156;2023-07-13T05:47:46;17.60;99.90
47791;DHT22;33547;49.044;1.156;2023-07-13T05:50:12;18.00;99.90
47791;DHT22;33547;49.044;1.156;2023-07-13T05:52:37;18.40;99.90
47791;DHT22;33547;49.044;1.156;2023-07-13T05:55:03;18.70;99.90
47791;DHT22;33547;49.044;1.156;2023-07-13T05:57:30;19.20;99.90
47791;DHT22;33547;49.044;1.156;2023-07-13T05:59:56;19.30;99.90
47791;DHT22;33547;49.044;1.156;2023-07-13T06:02:21;19.40;99.90
47791;DHT22;33547;49.044;1.156;2023-07-13T06:04:47;19.60;99.90
47791;DHT22;33547;49.044;1.156;2023-07-13T06:07:13;19.90;99.90
47791;DHT22;33547;49.044;1.156;2023-07-13T06:09:38;20.20;99.90
47791;DHT22;33547;49.044;1.156;2023-07-13T06:12:04;20.60;99.90
47791;DHT22;33547;49.044;1.156;2023-07-13T06:14:30;20.80;99.90
47791;DHT22;33547;49.044;1.156;2023-07-13T06:16:56;20.60;99.90
47791;DHT22;33547;49.044;1.156;2023-07-13T06:19:21;20.30;99.90
47791;DHT22;33547;49.044;1.156;2023-07-13T06:21:47;20.10;99.90
47791;DHT22;33547;49.044;1.156;2023-07-13T06:24:13;19.80;99.90
47791;DHT22;33547;49.044;1.156;2023-07-13T06:26:38;19.50;99.90
47791;DHT22;33547;49.044;1.156;2023-07-13T06:29:04;19.60;99.90
47791;DHT22;33547;49.044;1.156;2023-07-13T06:31:30;19.30;99.90
47791;DHT22;33547;49.044;1.156;2023-07-13T06:33:56;19.20;99.90
47791;DHT22;33547;49.044;1.156;2023-07-13T06:36:22;19.10;99.90
47791;DHT22;33547;49.044;1.156;2023-07-13T06:38:47;19.10;99.90
47791;DHT22;33547;49.044;1.156;2023-07-13T06:41:13;19.20;99.90
47791;DHT22;33547;49.044;1.156;2023-07-13T06:43:38;19.60;99.90
47791;DHT22;33547;49.044;1.156;2023-07-13T06:46:04;19.90;99.90
47791;DHT22;33547;49.044;1.156;2023-07-13T06:48:30;19.90;99.90
47791;DHT22;33547;49.044;1.156;2023-07-13T06:50:55;20.50;99.90
47791;DHT22;33547;49.044;1.156;2023-07-13T06:53:21;20.80;99.90
47791;DHT22;33547;49.044;1.156;2023-07-13T06:55:48;21.00;99.90
47791;DHT22;33547;49.044;1.156;2023-07-13T06:58:15;21.20;99.90
47791;DHT22;33547;49.044;1.156;2023-07-13T07:00:41;21.20;99.90
47791;DHT22;33547;49.044;1.156;2023-07-13T07:03:07;21.60;99.90
47791;DHT22;33547;49.044;1.156;2023-07-13T07:05:33;21.50;99.90
47791;DHT22;33547;49.044;1.156;2023-07-13T07:07:59;21.50;99.90
47791;DHT22;33547;49.044;1.156;2023-07-13T07:10:25;22.00;99.90
47791;DHT22;33547;49.044;1.156;2023-07-13T07:12:51;22.10;99.90
47791;DHT22;33547;49.044;1.156;2023-07-13T07:15:17;22.50;99.90
47791;DHT22;33547;49.044;1.156;2023-07-13T07:17:43;22.60;99.90
47791;DHT22;33547;49.044;1.156;2023-07-13T07:20:09;22.60;99.90
47791;DHT22;33547;49.044;1.156;2023-07-13T07:22:35;21.50;99.90
47791;DHT22;33547;49.044;1.156;2023-07-13T07:25:01;21.70;99.90
47791;DHT22;33547;49.044;1.156;2023-07-13T07:27:27;21.70;99.90
47791;DHT22;33547;49.044;1.156;2023-07-13T07:29:53;21.20;99.90
47791;DHT22;33547;49.044;1.156;2023-07-13T07:32:19;21.00;99.90
47791;DHT22;33547;49.044;1.156;2023-07-13T07:34:45;20.90;99.90
47791;DHT22;33547;49.044;1.156;2023-07-13T07:37:12;20.70;99.90
47791;DHT22;33547;49.044;1.156;2023-07-13T07:39:38;20.80;99.90
47791;DHT22;33547;49.044;1.156;2023-07-13T07:42:04;20.60;99.90
47791;DHT22;33547;49.044;1.156;2023-07-13T07:44:31;20.70;99.90
47791;DHT22;33547;49.044;1.156;2023-07-13T07:46:57;20.60;99.90
47791;DHT22;33547;49.044;1.156;2023-07-13T07:49:23;20.50;99.90
47791;DHT22;33547;49.044;1.156;2023-07-13T07:51:49;20.60;99.90
47791;DHT22;33547;49.044;1.156;2023-07-13T07:54:15;20.60;99.90
47791;DHT22;33547;49.044;1.156;2023-07-13T07:56:41;20.60;99.90
47791;DHT22;33547;49.044;1.156;2023-07-13T07:59:06;20.60;99.90
47791;DHT22;33547;49.044;1.156;2023-07-13T08:01:32;20.50;99.90
47791;DHT22;33547;49.044;1.156;2023-07-13T08:03:57;20.50;99.90
47791;DHT22;33547;49.044;1.156;2023-07-13T08:06:23;20.50;99.90
47791;DHT22;33547;49.044;1.156;2023-07-13T08:08:49;20.70;99.90
47791;DHT22;33547;49.044;1.156;2023-07-13T08:11:15;20.70;99.90
47791;DHT22;33547;49.044;1.156;2023-07-13T08:13:41;20.90;99.90
47791;DHT22;33547;49.044;1.156;2023-07-13T08:16:07;21.00;99.90
47791;DHT22;33547;49.044;1.156;2023-07-13T08:18:33;20.90;99.90
47791;DHT22;33547;49.044;1.156;2023-07-13T08:21:02;20.60;99.90
47791;DHT22;33547;49.044;1.156;2023-07-13T08:23:27;20.60;99.90
47791;DHT22;33547;49.044;1.156;2023-07-13T08:25:54;20.70;99.90
47791;DHT22;33547;49.044;1.156;2023-07-13T08:28:21;20.70;99.90
47791;DHT22;33547;49.044;1.156;2023-07-13T08:30:47;20.70;99.90
47791;DHT22;33547;49.044;1.156;2023-07-13T08:33:20;20.90;99.90
47791;DHT22;33547;49.044;1.156;2023-07-13T08:35:47;21.00;99.90
47791;DHT22;33547;49.044;1.156;2023-07-13T08:38:13;21.10;99.90
47791;DHT22;33547;49.044;1.156;2023-07-13T08:40:39;21.00;99.90
47791;DHT22;33547;49.044;1.156;2023-07-13T08:43:09;21.00;99.90
47791;DHT22;33547;49.044;1.156;2023-07-13T08:45:44;21.10;99.90
47791;DHT22;33547;49.044;1.156;2023-07-13T08:51:20;21.30;99.90
47791;DHT22;33547;49.044;1.156;2023-07-13T08:53:40;21.20;99.90
47791;DHT22;33547;49.044;1.156;2023-07-13T08:56:15;21.30;99.90
47791;DHT22;33547;49.044;1.156;2023-07-13T08:58:42;21.50;99.90
47791;DHT22;33547;49.044;1.156;2023-07-13T09:01:20;21.70;99.90
47791;DHT22;33547;49.044;1.156;2023-07-13T09:04:11;21.40;99.90
47791;DHT22;33547;49.044;1.156;2023-07-13T09:14:46;21.80;99.90
47791;DHT22;33547;49.044;1.156;2023-07-13T09:17:20;21.70;99.90
47791;DHT22;33547;49.044;1.156;2023-07-13T09:19:53;21.90;99.90
47791;DHT22;33547;49.044;1.156;2023-07-13T09:22:22;22.30;99.90
47791;DHT22;33547;49.044;1.156;2023-07-13T09:27:46;22.70;99.90
47791;DHT22;33547;49.044;1.156;2023-07-13T09:32:45;22.60;99.90
47791;DHT22;33547;49.044;1.156;2023-07-13T09:35:17;22.60;99.90
47791;DHT22;33547;49.044;1.156;2023-07-13T09:37:45;22.20;99.90
47791;DHT22;33547;49.044;1.156;2023-07-13T09:40:20;22.00;99.90
47791;DHT22;33547;49.044;1.156;2023-07-13T09:42:48;21.40;99.90
47791;DHT22;33547;49.044;1.156;2023-07-13T09:45:27;21.30;99.90
47791;DHT22;33547;49.044;1.156;2023-07-13T09:48:20;21.30;99.90
47791;DHT22;33547;49.044;1.156;2023-07-13T09:50:45;21.10;99.90
47791;DHT22;33547;49.044;1.156;2023-07-13T09:53:15;21.20;99.90
47791;DHT22;33547;49.044;1.156;2023-07-13T09:55:43;21.00;99.90
47791;DHT22;33547;49.044;1.156;2023-07-13T09:58:23;21.20;99.90
47791;DHT22;33547;49.044;1.156;2023-07-13T10:00:56;21.40;99.90
47791;DHT22;33547;49.044;1.156;2023-07-13T10:03:27;21.70;99.90
47791;DHT22;33547;49.044;1.156;2023-07-13T10:05:53;21.70;99.90
47791;DHT22;33547;49.044;1.156;2023-07-13T10:08:27;21.80;99.90
47791;DHT22;33547;49.044;1.156;2023-07-13T10:11:00;21.90;99.90
47791;DHT22;33547;49.044;1.156;2023-07-13T10:13:34;21.90;99.90
47791;DHT22;33547;49.044;1.156;2023-07-13T10:16:04;21.90;99.90
47791;DHT22;33547;49.044;1.156;2023-07-13T10:18:53;21.90;99.90
47791;DHT22;33547;49.044;1.156;2023-07-13T10:21:20;21.90;99.90
47791;DHT22;33547;49.044;1.156;2023-07-13T10:26:41;21.80;99.90
47791;DHT22;33547;49.044;1.156;2023-07-13T10:29:13;21.70;99.90
47791;DHT22;33547;49.044;1.156;2023-07-13T10:31:51;21.60;99.90
47791;DHT22;33547;49.044;1.156;2023-07-13T10:34:17;21.70;99.90
47791;DHT22;33547;49.044;1.156;2023-07-13T10:36:46;21.70;99.90
47791;DHT22;33547;49.044;1.156;2023-07-13T10:39:21;21.90;99.90
47791;DHT22;33547;49.044;1.156;2023-07-13T10:42:03;22.00;99.90
47791;DHT22;33547;49.044;1.156;2023-07-13T10:44:31;22.30;99.90
47791;DHT22;33547;49.044;1.156;2023-07-13T10:47:00;22.40;99.90
47791;DHT22;33547;49.044;1.156;2023-07-13T10:49:28;22.40;99.90
47791;DHT22;33547;49.044;1.156;2023-07-13T10:51:54;22.50;99.90
47791;DHT22;33547;49.044;1.156;2023-07-13T10:54:31;22.70;99.90
47791;DHT22;33547;49.044;1.156;2023-07-13T10:57:26;23.10;99.90
47791;DHT22;33547;49.044;1.156;2023-07-13T11:02:38;24.70;99.50
47791;DHT22;33547;49.044;1.156;2023-07-13T11:05:28;25.90;99.70
47791;DHT22;33547;49.044;1.156;2023-07-13T11:08:36;26.20;97.20
47791;DHT22;33547;49.044;1.156;2023-07-13T11:11:03;25.60;97.80
47791;DHT22;33547;49.044;1.156;2023-07-13T11:18:53;23.80;98.00
47791;DHT22;33547;49.044;1.156;2023-07-13T11:21:33;23.60;99.20
47791;DHT22;33547;49.044;1.156;2023-07-13T11:24:13;23.50;99.00
47791;DHT22;33547;49.044;1.156;2023-07-13T11:26:51;23.30;98.90
47791;DHT22;33547;49.044;1.156;2023-07-13T11:31:51;22.90;99.90
47791;DHT22;33547;49.044;1.156;2023-07-13T11:34:21;22.70;99.10
47791;DHT22;33547;49.044;1.156;2023-07-13T11:36:50;22.70;99.30
47791;DHT22;33547;49.044;1.156;2023-07-13T11:39:29;23.00;99.40
47791;DHT22;33547;49.044;1.156;2023-07-13T11:41:59;23.30;99.10
47791;DHT22;33547;49.044;1.156;2023-07-13T11:44:28;24.50;98.80
47791;DHT22;33547;49.044;1.156;2023-07-13T11:46:56;24.90;98.30
47791;DHT22;33547;49.044;1.156;2023-07-13T11:49:28;26.40;97.30
47791;DHT22;33547;49.044;1.156;2023-07-13T11:51:55;25.90;95.70
47791;DHT22;33547;49.044;1.156;2023-07-13T11:54:41;25.50;96.00
47791;DHT22;33547;49.044;1.156;2023-07-13T11:59:46;26.10;94.30
47791;DHT22;33547;49.044;1.156;2023-07-13T12:02:28;25.80;95.60
47791;DHT22;33547;49.044;1.156;2023-07-13T12:04:54;25.50;96.10
47791;DHT22;33547;49.044;1.156;2023-07-13T12:07:20;25.20;95.50
47791;DHT22;33547;49.044;1.156;2023-07-13T12:09:45;25.50;95.50
47791;DHT22;33547;49.044;1.156;2023-07-13T12:12:17;26.00;95.20
47791;DHT22;33547;49.044;1.156;2023-07-13T12:14:43;25.80;94.40
47791;DHT22;33547;49.044;1.156;2023-07-13T12:17:16;25.40;94.90
47791;DHT22;33547;49.044;1.156;2023-07-13T12:19:44;24.80;94.80
47791;DHT22;33547;49.044;1.156;2023-07-13T12:22:12;24.40;95.90
47791;DHT22;33547;49.044;1.156;2023-07-13T12:24:40;23.90;95.80
47791;DHT22;33547;49.044;1.156;2023-07-13T12:27:15;24.10;96.30
47791;DHT22;33547;49.044;1.156;2023-07-13T12:29:50;23.80;96.60
47791;DHT22;33547;49.044;1.156;2023-07-13T12:32:18;24.50;96.20
47791;DHT22;33547;49.044;1.156;2023-07-13T12:35:04;24.70;95.00
47791;DHT22;33547;49.044;1.156;2023-07-13T12:37:34;24.30;94.90
47791;DHT22;33547;49.044;1.156;2023-07-13T12:39:59;24.50;94.60
47791;DHT22;33547;49.044;1.156;2023-07-13T12:42:27;24.50;95.50
47791;DHT22;33547;49.044;1.156;2023-07-13T12:44:54;24.70;95.00
47791;DHT22;33547;49.044;1.156;2023-07-13T12:47:22;24.90;96.00
47791;DHT22;33547;49.044;1.156;2023-07-13T12:49:50;25.00;96.20
47791;DHT22;33547;49.044;1.156;2023-07-13T12:52:20;25.20;96.20
47791;DHT22;33547;49.044;1.156;2023-07-13T12:55:04;25.10;95.70
47791;DHT22;33547;49.044;1.156;2023-07-13T12:57:30;25.10;95.80
47791;DHT22;33547;49.044;1.156;2023-07-13T12:59:56;25.20;95.70
47791;DHT22;33547;49.044;1.156;2023-07-13T13:02:33;25.90;95.60
47791;DHT22;33547;49.044;1.156;2023-07-13T13:05:00;25.90;95.00
47791;DHT22;33547;49.044;1.156;2023-07-13T13:07:28;25.60;95.10
47791;DHT22;33547;49.044;1.156;2023-07-13T13:09:55;25.60;95.40
47791;DHT22;33547;49.044;1.156;2023-07-13T13:12:22;25.40;94.60
47791;DHT22;33547;49.044;1.156;2023-07-13T13:14:49;25.60;95.00
47791;DHT22;33547;49.044;1.156;2023-07-13T13:17:23;25.50;94.80
47791;DHT22;33547;49.044;1.156;2023-07-13T13:19:51;25.40;94.90
47791;DHT22;33547;49.044;1.156;2023-07-13T13:22:20;25.10;95.30
47791;DHT22;33547;49.044;1.156;2023-07-13T13:24:46;24.90;95.40
47791;DHT22;33547;49.044;1.156;2023-07-13T13:27:17;24.60;96.30
47791;DHT22;33547;49.044;1.156;2023-07-13T13:29:43;24.40;96.00
47791;DHT22;33547;49.044;1.156;2023-07-13T13:32:13;24.10;96.60
47791;DHT22;33547;49.044;1.156;2023-07-13T13:34:39;23.90;96.80
47791;DHT22;33547;49.044;1.156;2023-07-13T13:37:19;23.80;96.50
47791;DHT22;33547;49.044;1.156;2023-07-13T13:39:46;23.80;97.00
47791;DHT22;33547;49.044;1.156;2023-07-13T13:42:12;23.50;96.30
47791;DHT22;33547;49.044;1.156;2023-07-13T13:44:38;23.70;97.60
47791;DHT22;33547;49.044;1.156;2023-07-13T13:47:22;23.90;96.90
47791;DHT22;33547;49.044;1.156;2023-07-13T13:49:52;24.10;97.00
47791;DHT22;33547;49.044;1.156;2023-07-13T13:52:17;24.40;95.80
47791;DHT22;33547;49.044;1.156;2023-07-13T13:54:44;24.60;95.80
47791;DHT22;33547;49.044;1.156;2023-07-13T13:57:10;24.90;95.70
47791;DHT22;33547;49.044;1.156;2023-07-13T13:59:38;24.50;96.10
47791;DHT22;33547;49.044;1.156;2023-07-13T14:02:27;24.30;96.80
47791;DHT22;33547;49.044;1.156;2023-07-13T14:04:56;24.20;96.20
47791;DHT22;33547;49.044;1.156;2023-07-13T14:07:22;24.10;96.70
47791;DHT22;33547;49.044;1.156;2023-07-13T14:09:48;23.90;96.60
47791;DHT22;33547;49.044;1.156;2023-07-13T14:12:14;23.80;97.30
47791;DHT22;33547;49.044;1.156;2023-07-13T14:14:39;23.80;97.00
47791;DHT22;33547;49.044;1.156;2023-07-13T14:17:22;23.50;96.50
47791;DHT22;33547;49.044;1.156;2023-07-13T14:19:52;23.50;96.60
47791;DHT22;33547;49.044;1.156;2023-07-13T14:22:23;23.40;96.60
47791;DHT22;33547;49.044;1.156;2023-07-13T14:24:51;23.20;96.40
47791;DHT22;33547;49.044;1.156;2023-07-13T14:27:17;23.50;96.80
47791;DHT22;33547;49.044;1.156;2023-07-13T14:29:42;23.60;96.60
47791;DHT22;33547;49.044;1.156;2023-07-13T14:32:12;23.90;96.30
47791;DHT22;33547;49.044;1.156;2023-07-13T14:34:38;24.00;95.10
47791;DHT22;33547;49.044;1.156;2023-07-13T14:37:04;24.20;96.20
47791;DHT22;33547;49.044;1.156;2023-07-13T14:39:31;24.10;95.20
47791;DHT22;33547;49.044;1.156;2023-07-13T14:41:57;24.10;95.30
47791;DHT22;33547;49.044;1.156;2023-07-13T14:44:30;24.10;95.40
47791;DHT22;33547;49.044;1.156;2023-07-13T14:47:02;24.30;95.00
47791;DHT22;33547;49.044;1.156;2023-07-13T14:49:39;24.50;95.00
47791;DHT22;33547;49.044;1.156;2023-07-13T14:52:19;24.40;95.00
47791;DHT22;33547;49.044;1.156;2023-07-13T14:54:46;24.30;95.30
47791;DHT22;33547;49.044;1.156;2023-07-13T14:57:13;24.50;95.20
47791;DHT22;33547;49.044;1.156;2023-07-13T14:59:40;24.50;94.80
47791;DHT22;33547;49.044;1.156;2023-07-13T15:02:25;24.50;94.40
47791;DHT22;33547;49.044;1.156;2023-07-13T15:04:52;24.70;94.00
47791;DHT22;33547;49.044;1.156;2023-07-13T15:07:18;24.80;94.30
47791;DHT22;33547;49.044;1.156;2023-07-13T15:09:46;24.80;93.00
47791;DHT22;33547;49.044;1.156;2023-07-13T15:12:13;25.00;93.40
47791;DHT22;33547;49.044;1.156;2023-07-13T15:14:39;24.80;93.60
47791;DHT22;33547;49.044;1.156;2023-07-13T15:17:08;24.70;92.20
47791;DHT22;33547;49.044;1.156;2023-07-13T15:19:45;24.60;92.80
47791;DHT22;33547;49.044;1.156;2023-07-13T15:22:11;24.70;93.20
47791;DHT22;33547;49.044;1.156;2023-07-13T15:24:37;24.80;93.10
47791;DHT22;33547;49.044;1.156;2023-07-13T15:27:04;24.80;93.20
47791;DHT22;33547;49.044;1.156;2023-07-13T15:29:29;24.40;92.70
47791;DHT22;33547;49.044;1.156;2023-07-13T15:31:55;24.60;92.70
47791;DHT22;33547;49.044;1.156;2023-07-13T15:34:24;25.00;92.60
47791;DHT22;33547;49.044;1.156;2023-07-13T15:36:51;24.80;93.10
47791;DHT22;33547;49.044;1.156;2023-07-13T15:39:17;24.80;93.00
47791;DHT22;33547;49.044;1.156;2023-07-13T15:41:44;25.00;92.80
47791;DHT22;33547;49.044;1.156;2023-07-13T15:44:28;24.90;92.30
47791;DHT22;33547;49.044;1.156;2023-07-13T15:46:54;24.60;92.60
47791;DHT22;33547;49.044;1.156;2023-07-13T15:49:20;24.50;93.60
47791;DHT22;33547;49.044;1.156;2023-07-13T15:51:47;24.20;92.80
47791;DHT22;33547;49.044;1.156;2023-07-13T15:54:15;24.20;93.20
47791;DHT22;33547;49.044;1.156;2023-07-13T15:56:41;23.90;92.60
47791;DHT22;33547;49.044;1.156;2023-07-13T15:59:11;23.90;93.60
47791;DHT22;33547;49.044;1.156;2023-07-13T16:01:38;23.60;93.40
47791;DHT22;33547;49.044;1.156;2023-07-13T16:04:04;23.70;93.90
47791;DHT22;33547;49.044;1.156;2023-07-13T16:06:36;23.60;94.80
47791;DHT22;33547;49.044;1.156;2023-07-13T16:09:03;23.50;94.30
47791;DHT22;33547;49.044;1.156;2023-07-13T16:11:37;23.30;94.60
47791;DHT22;33547;49.044;1.156;2023-07-13T16:14:03;23.00;94.80